sensor_id;sensor_type;location;lat;lon;timestamp;temperature;humidity
2851;DHT22;1433;49.976;8.342;2022-10-22T00:00:32;15.50;99.90
2851;DHT22;1433;49.976;8.342;2022-10-22T00:02:59;15.50;99.90
2851;DHT22;1433;49.976;8.342;2022-10-22T00:05:25;15.50;99.90
2851;DHT22;1433;49.976;8.342;2022-10-22T00:07:51;15.50;99.90
2851;DHT22;1433;49.976;8.342;2022-10-22T00:10:17;15.50;99.90
2851;DHT22;1433;49.976;8.342;2022-10-22T00:12:44;15.50;99.90
2851;DHT22;1433;49.976;8.342;2022-10-22T00:15:10;15.40;99.90
2851;DHT22;1433;49.976;8.342;2022-10-22T00:17:36;15.40;99.90
2851;DHT22;1433;49.976;8.342;2022-10-22T00:20:03;15.40;99.90
2851;DHT22;1433;49.976;8.342;2022-10-22T00:22:30;15.30;99.90
2851;DHT22;1433;49.976;8.342;2022-10-22T00:24:56;15.40;99.90
2851;DHT22;1433;49.976;8.342;2022-10-22T00:27:22;15.30;99.90
2851;DHT22;1433;49.976;8.342;2022-10-22T00:29:48;15.40;99.90
2851;DHT22;1433;49.976;8.342;2022-10-22T00:32:14;15.30;99.90
2851;DHT22;1433;49.976;8.342;2022-10-22T00:34:40;15.30;99.90
2851;DHT22;1433;49.976;8.342;2022-10-22T00:37:06;15.40;99.90
2851;DHT22;1433;49.976;8.342;2022-10-22T00:39:33;15.40;99.90
2851;DHT22;1433;49.976;8.342;2022-10-22T00:41:59;15.40;99.90
2851;DHT22;1433;49.976;8.342;2022-10-22T00:44:59;15.40;99.90
2851;DHT22;1433;49.976;8.342;2022-10-22T00:47:38;15.40;99.90
2851;DHT22;1433;49.976;8.342;2022-10-22T00:50:15;15.40;99.90
2851;DHT22;1433;49.976;8.342;2022-10-22T00:52:42;15.40;99.90
2851;DHT22;1433;49.976;8.342;2022-10-22T00:55:08;15.40;99.90
2851;DHT22;1433;49.976;8.342;2022-10-22T00:57:35;15.40;99.90
2851;DHT22;1433;49.976;8.342;2022-10-22T01:00:03;15.40;99.90
2851;DHT22;1433;49.976;8.342;2022-10-22T01:02:29;15.40;99.90
2851;DHT22;1433;49.976;8.342;2022-10-22T01:04:55;15.30;99.90
2851;DHT22;1433;49.976;8.342;2022-10-22T01:07:23;15.30;99.90
2851;DHT22;1433;49.976;8.342;2022-10-22T01:15:27;14.90;99.90
2851;DHT22;1433;49.976;8.342;2022-10-22T01:17:58;14.80;99.90
2851;DHT22;1433;49.976;8.342;2022-10-22T01:26:38;14.80;99.90
2851;DHT22;1433;49.976;8.342;2022-10-22T01:29:16;14.80;99.90
2851;DHT22;1433;49.976;8.342;2022-10-22T01:31:52;14.80;99.90
2851;DHT22;1433;49.976;8.342;2022-10-22T01:34:19;14.80;99.90
2851;DHT22;1433;49.976;8.342;2022-10-22T01:36:46;14.80;99.90
2851;DHT22;1433;49.976;8.342;2022-10-22T01:39:14;14.80;99.90
2851;DHT22;1433;49.976;8.342;2022-10-22T01:41:42;14.80;99.90
2851;DHT22;1433;49.976;8.342;2022-10-22T01:44:34;14.90;99.90
2851;DHT22;1433;49.976;8.342;2022-10-22T02:00:44;14.80;99.90
2851;DHT22;1433;49.976;8.342;2022-10-22T02:03:16;14.80;99.90
2851;DHT22;1433;49.976;8.342;2022-10-22T02:05:45;14.80;99.90
2851;DHT22;1433;49.976;8.342;2022-10-22T02:08:16;14.80;99.90
2851;DHT22;1433;49.976;8.342;2022-10-22T02:10:44;14.80;99.90
2851;DHT22;1433;49.976;8.342;2022-10-22T02:13:23;14.80;99.90
2851;DHT22;1433;49.976;8.342;2022-10-22T02:15:49;14.80;99.90
2851;DHT22;1433;49.976;8.342;2022-10-22T02:18:18;14.80;99.90
2851;DHT22;1433;49.976;8.342;2022-10-22T02:20:46;14.80;99.90
2851;DHT22;1433;49.976;8.342;2022-10-22T02:23:12;14.80;99.90
2851;DHT22;1433;49.976;8.342;2022-10-22T02:25:41;14.80;99.90
2851;DHT22;1433;49.976;8.342;2022-10-22T02:28:23;14.80;99.90
2851;DHT22;1433;49.976;8.342;2022-10-22T02:30:54;14.80;99.90
2851;DHT22;1433;49.976;8.342;2022-10-22T02:33:23;14.80;99.90
2851;DHT22;1433;49.976;8.342;2022-10-22T02:35:50;14.90;99.90
2851;DHT22;1433;49.976;8.342;2022-10-22T02:38:17;14.90;99.90
2851;DHT22;1433;49.976;8.342;2022-10-22T02:40:45;14.90;99.90
2851;DHT22;1433;49.976;8.342;2022-10-22T02:43:11;14.80;99.90
2851;DHT22;1433;49.976;8.342;2022-10-22T02:45:37;14.80;99.90
2851;DHT22;1433;49.976;8.342;2022-10-22T02:48:04;14.80;99.90
2851;DHT22;1433;49.976;8.342;2022-10-22T02:50:31;14.80;99.90
2851;DHT22;1433;49.976;8.342;2022-10-22T02:52:57;14.80;99.90
2851;DHT22;1433;49.976;8.342;2022-10-22T02:55:23;14.90;99.90
2851;DHT22;1433;49.976;8.342;2022-10-22T02:57:49;14.80;99.90
2851;DHT22;1433;49.976;8.342;2022-10-22T03:00:15;14.80;99.90
2851;DHT22;1433;49.976;8.342;2022-10-22T03:02:42;14.90;99.90
2851;DHT22;1433;49.976;8.342;2022-10-22T03:05:08;14.90;99.90
2851;DHT22;1433;49.976;8.342;2022-10-22T03:07:35;14.80;99.90
2851;DHT22;1433;49.976;8.342;2022-10-22T03:10:01;14.80;99.90
2851;DHT22;1433;49.976;8.342;2022-10-22T03:12:27;14.70;99.90
2851;DHT22;1433;49.976;8.342;2022-10-22T03:14:53;14.60;99.90
2851;DHT22;1433;49.976;8.342;2022-10-22T03:17:19;14.60;99.90
2851;DHT22;1433;49.976;8.342;2022-10-22T03:19:45;14.60;99.90
2851;DHT22;1433;49.976;8.342;2022-10-22T03:22:17;14.60;99.90
2851;DHT22;1433;49.976;8.342;2022-10-22T03:24:45;14.60;99.90
2851;DHT22;1433;49.976;8.342;2022-10-22T03:27:14;14.60;99.90
2851;DHT22;1433;49.976;8.342;2022-10-22T03:29:41;14.70;99.90
2851;DHT22;1433;49.976;8.342;2022-10-22T03:32:08;14.70;99.90
2851;DHT22;1433;49.976;8.342;2022-10-22T03:34:34;14.80;99.90
2851;DHT22;1433;49.976;8.342;2022-10-22T03:37:01;14.80;99.90
2851;DHT22;1433;49.976;8.342;2022-10-22T03:39:31;14.80;99.90
2851;DHT22;1433;49.976;8.342;2022-10-22T03:41:58;14.80;99.90
2851;DHT22;1433;49.976;8.342;2022-10-22T03:44:25;14.90;99.90
2851;DHT22;1433;49.976;8.342;2022-10-22T03:46:52;14.90;99.90
2851;DHT22;1433;49.976;8.342;2022-10-22T03:49:19;14.90;99.90
2851;DHT22;1433;49.976;8.342;2022-10-22T03:51:45;14.90;99.90
2851;DHT22;1433;49.976;8.342;2022-10-22T03:54:11;14.90;99.90
2851;DHT22;1433;49.976;8.342;2022-10-22T03:56:37;14.90;99.90
2851;DHT22;1433;49.976;8.342;2022-10-22T03:59:03;14.90;99.90
2851;DHT22;1433;49.976;8.342;2022-10-22T04:01:30;14.80;99.90
2851;DHT22;1433;49.976;8.342;2022-10-22T04:03:57;14.90;99.90
2851;DHT22;1433;49.976;8.342;2022-10-22T04:06:23;14.90;99.90
2851;DHT22;1433;49.976;8.342;2022-10-22T04:08:50;14.90;99.90
2851;DHT22;1433;49.976;8.342;2022-10-22T04:11:16;14.90;99.90
2851;DHT22;1433;49.976;8.342;2022-10-22T04:13:42;14.90;99.90
2851;DHT22;1433;49.976;8.342;2022-10-22T04:16:14;14.90;99.90
2851;DHT22;1433;49.976;8.342;2022-10-22T04:18:41;14.80;99.90
2851;DHT22;1433;49.976;8.342;2022-10-22T04:21:09;14.90;99.90
2851;DHT22;1433;49.976;8.342;2022-10-22T04:23:36;14.90;99.90
2851;DHT22;1433;49.976;8.342;2022-10-22T04:26:05;14.90;99.90
2851;DHT22;1433;49.976;8.342;2022-10-22T04:28:32;14.90;99.90
2851;DHT22;1433;49.976;8.342;2022-10-22T04:30:59;14.90;99.90
2851;DHT22;1433;49.976;8.342;2022-10-22T04:33:25;14.90;99.90
2851;DHT22;1433;49.976;8.342;2022-10-22T04:35:51;14.90;99.90
2851;DHT22;1433;49.976;8.342;2022-10-22T04:38:17;14.90;99.90
2851;DHT22;1433;49.976;8.342;2022-10-22T04:40:43;14.90;99.90
2851;DHT22;1433;49.976;8.342;2022-10-22T04:43:09;14.80;99.90
2851;DHT22;1433;49.976;8.342;2022-10-22T04:45:35;14.80;99.90
2851;DHT22;1433;49.976;8.342;2022-10-22T04:48:02;14.80;99.90
2851;DHT22;1433;49.976;8.342;2022-10-22T04:50:28;14.70;99.90
2851;DHT22;1433;49.976;8.342;2022-10-22T04:52:55;14.70;99.90
2851;DHT22;1433;49.976;8.342;2022-10-22T04:55:21;14.70;99.90
2851;DHT22;1433;49.976;8.342;2022-10-22T04:57:47;14.70;99.90
2851;DHT22;1433;49.976;8.342;2022-10-22T05:00:16;14.70;99.90
2851;DHT22;1433;49.976;8.342;2022-10-22T05:02:42;14.70;99.90
2851;DHT22;1433;49.976;8.342;2022-10-22T05:05:10;14.70;99.90
2851;DHT22;1433;49.976;8.342;2022-10-22T05:07:36;14.70;99.90
2851;DHT22;1433;49.976;8.342;2022-10-22T05:10:03;14.60;99.90
2851;DHT22;1433;49.976;8.342;2022-10-22T05:12:29;14.60;99.90
2851;DHT22;1433;49.976;8.342;2022-10-22T05:14:55;14.60;99.90
2851;DHT22;1433;49.976;8.342;2022-10-22T05:17:21;14.60;99.90
2851;DHT22;1433;49.976;8.342;2022-10-22T05:19:48;14.60;99.90
2851;DHT22;1433;49.976;8.342;2022-10-22T05:22:14;14.60;99.90
2851;DHT22;1433;49.976;8.342;2022-10-22T05:24:40;14.70;99.90
2851;DHT22;1433;49.976;8.342;2022-10-22T05:27:06;14.70;99.90
2851;DHT22;1433;49.976;8.342;2022-10-22T05:29:32;14.70;99.90
2851;DHT22;1433;49.976;8.342;2022-10-22T05:31:59;14.70;99.90
2851;DHT22;1433;49.976;8.342;2022-10-22T05:34:25;14.70;99.90
2851;DHT22;1433;49.976;8.342;2022-10-22T05:36:51;14.80;99.90
2851;DHT22;1433;49.976;8.342;2022-10-22T05:39:17;14.80;99.90
2851;DHT22;1433;49.976;8.342;2022-10-22T05:41:44;14.90;99.90
2851;DHT22;1433;49.976;8.342;2022-10-22T05:44:11;14.90;99.90
2851;DHT22;1433;49.976;8.342;2022-10-22T05:46:37;14.80;99.90
2851;DHT22;1433;49.976;8.342;2022-10-22T05:49:05;14.80;99.90
2851;DHT22;1433;49.976;8.342;2022-10-22T05:51:33;14.70;99.90
2851;DHT22;1433;49.976;8.342;2022-10-22T05:54:01;14.60;99.90
2851;DHT22;1433;49.976;8.342;2022-10-22T05:56:29;14.60;99.90
2851;DHT22;1433;49.976;8.342;2022-10-22T05:58:57;14.40;99.90
2851;DHT22;1433;49.976;8.342;2022-10-22T06:01:25;14.30;99.90
2851;DHT22;1433;49.976;8.342;2022-10-22T06:03:54;14.10;99.90
2851;DHT22;1433;49.976;8.342;2022-10-22T06:06:36;14.00;99.90
2851;DHT22;1433;49.976;8.342;2022-10-22T06:09:14;13.80;99.90
2851;DHT22;1433;49.976;8.342;2022-10-22T06:11:41;13.80;99.90
2851;DHT22;1433;49.976;8.342;2022-10-22T06:14:08;13.70;99.90
2851;DHT22;1433;49.976;8.342;2022-10-22T06:16:34;13.60;99.90
2851;DHT22;1433;49.976;8.342;2022-10-22T06:19:01;13.50;99.90
2851;DHT22;1433;49.976;8.342;2022-10-22T06:21:28;13.40;99.90
2851;DHT22;1433;49.976;8.342;2022-10-22T06:23:56;13.30;99.90
2851;DHT22;1433;49.976;8.342;2022-10-22T06:26:23;13.30;99.90
2851;DHT22;1433;49.976;8.342;2022-10-22T06:28:49;13.20;99.90
2851;DHT22;1433;49.976;8.342;2022-10-22T06:31:15;13.20;99.90
2851;DHT22;1433;49.976;8.342;2022-10-22T06:33:41;13.10;99.90
2851;DHT22;1433;49.976;8.342;2022-10-22T06:36:10;13.10;99.90
2851;DHT22;1433;49.976;8.342;2022-10-22T06:38:37;13.10;99.90
2851;DHT22;1433;49.976;8.342;2022-10-22T06:41:06;13.10;99.90
2851;DHT22;1433;49.976;8.342;2022-10-22T06:43:35;13.10;99.90
2851;DHT22;1433;49.976;8.342;2022-10-22T06:46:04;13.00;99.90
2851;DHT22;1433;49.976;8.342;2022-10-22T06:48:32;13.00;99.90
2851;DHT22;1433;49.976;8.342;2022-10-22T06:51:06;13.10;99.90
2851;DHT22;1433;49.976;8.342;2022-10-22T06:53:34;13.10;99.90
2851;DHT22;1433;49.976;8.342;2022-10-22T06:56:12;13.10;99.90
2851;DHT22;1433;49.976;8.342;2022-10-22T06:58:39;13.10;99.90
2851;DHT22;1433;49.976;8.342;2022-10-22T07:01:13;13.10;99.90
2851;DHT22;1433;49.976;8.342;2022-10-22T07:03:37;13.10;99.90
2851;DHT22;1433;49.976;8.342;2022-10-22T07:06:06;13.20;99.90
2851;DHT22;1433;49.976;8.342;2022-10-22T07:08:32;13.20;99.90
2851;DHT22;1433;49.976;8.342;2022-10-22T07:11:11;13.30;99.90
2851;DHT22;1433;49.976;8.342;2022-10-22T07:13:34;13.30;99.90
2851;DHT22;1433;49.976;8.342;2022-10-22T07:16:01;13.30;99.90
2851;DHT22;1433;49.976;8.342;2022-10-22T07:18:28;13.40;99.90
2851;DHT22;1433;49.976;8.342;2022-10-22T07:20:54;13.40;99.90
2851;DHT22;1433;49.976;8.342;2022-10-22T07:23:20;13.50;99.90
2851;DHT22;1433;49.976;8.342;2022-10-22T07:25:47;13.60;99.90
2851;DHT22;1433;49.976;8.342;2022-10-22T07:28:13;13.70;99.90
2851;DHT22;1433;49.976;8.342;2022-10-22T07:30:39;13.70;99.90
2851;DHT22;1433;49.976;8.342;2022-10-22T07:33:06;13.70;99.90
2851;DHT22;1433;49.976;8.342;2022-10-22T07:35:35;13.80;99.90
2851;DHT22;1433;49.976;8.342;2022-10-22T07:38:01;13.90;99.90
2851;DHT22;1433;49.976;8.342;2022-10-22T07:40:28;13.90;99.90
2851;DHT22;1433;49.976;8.342;2022-10-22T07:42:54;13.90;99.90
2851;DHT22;1433;49.976;8.342;2022-10-22T07:45:20;14.00;99.90
2851;DHT22;1433;49.976;8.342;2022-10-22T07:47:47;14.10;99.90
2851;DHT22;1433;49.976;8.342;2022-10-22T07:50:14;14.20;99.90
2851;DHT22;1433;49.976;8.342;2022-10-22T07:52:42;14.30;99.90
2851;DHT22;1433;49.976;8.342;2022-10-22T07:55:09;14.30;99.90
2851;DHT22;1433;49.976;8.342;2022-10-22T07:57:35;14.50;99.90
2851;DHT22;1433;49.976;8.342;2022-10-22T08:00:06;14.50;99.90
2851;DHT22;1433;49.976;8.342;2022-10-22T08:02:34;14.60;99.90
2851;DHT22;1433;49.976;8.342;2022-10-22T08:05:00;14.60;99.90
2851;DHT22;1433;49.976;8.342;2022-10-22T08:07:26;14.70;99.90
2851;DHT22;1433;49.976;8.342;2022-10-22T08:09:53;14.70;99.90
2851;DHT22;1433;49.976;8.342;2022-10-22T08:12:19;14.80;99.90
2851;DHT22;1433;49.976;8.342;2022-10-22T08:14:47;14.90;99.90
2851;DHT22;1433;49.976;8.342;2022-10-22T08:17:13;14.90;99.90
2851;DHT22;1433;49.976;8.342;2022-10-22T08:19:40;14.90;99.90
2851;DHT22;1433;49.976;8.342;2022-10-22T08:22:06;15.00;99.90
2851;DHT22;1433;49.976;8.342;2022-10-22T08:24:32;15.00;99.90
2851;DHT22;1433;49.976;8.342;2022-10-22T08:26:58;15.00;99.90
2851;DHT22;1433;49.976;8.342;2022-10-22T08:29:25;15.10;99.90
2851;DHT22;1433;49.976;8.342;2022-10-22T08:31:52;15.20;99.90
2851;DHT22;1433;49.976;8.342;2022-10-22T08:34:19;15.20;99.90
2851;DHT22;1433;49.976;8.342;2022-10-22T08:36:46;15.20;99.90
2851;DHT22;1433;49.976;8.342;2022-10-22T08:39:12;15.20;99.90
2851;DHT22;1433;49.976;8.342;2022-10-22T08:41:53;15.40;99.90
2851;DHT22;1433;49.976;8.342;2022-10-22T08:49:48;15.40;99.90
2851;DHT22;1433;49.976;8.342;2022-10-22T08:52:16;15.40;99.90
2851;DHT22;1433;49.976;8.342;2022-10-22T08:54:50;15.50;99.90
2851;DHT22;1433;49.976;8.342;2022-10-22T09:00:10;15.50;99.90
2851;DHT22;1433;49.976;8.342;2022-10-22T09:05:34;15.70;99.90
2851;DHT22;1433;49.976;8.342;2022-10-22T09:07:56;15.70;99.90
2851;DHT22;1433;49.976;8.342;2022-10-22T09:10:28;15.80;99.90
2851;DHT22;1433;49.976;8.342;2022-10-22T09:12:56;15.90;99.90
2851;DHT22;1433;49.976;8.342;2022-10-22T09:15:22;15.90;99.90
2851;DHT22;1433;49.976;8.342;2022-10-22T09:18:09;16.10;99.90
2851;DHT22;1433;49.976;8.342;2022-10-22T09:20:36;16.10;99.90
2851;DHT22;1433;49.976;8.342;2022-10-22T09:24:08;16.20;99.90
2851;DHT22;1433;49.976;8.342;2022-10-22T09:25:48;16.30;99.90
2851;DHT22;1433;49.976;8.342;2022-10-22T09:28:16;16.30;99.90
2851;DHT22;1433;49.976;8.342;2022-10-22T09:30:42;16.30;99.90
2851;DHT22;1433;49.976;8.342;2022-10-22T09:33:17;16.40;99.90
2851;DHT22;1433;49.976;8.342;2022-10-22T09:35:58;16.50;99.90
2851;DHT22;1433;49.976;8.342;2022-10-22T09:38:29;16.60;99.90
2851;DHT22;1433;49.976;8.342;2022-10-22T09:40:58;16.70;99.90
2851;DHT22;1433;49.976;8.342;2022-10-22T09:43:25;16.70;99.90
2851;DHT22;1433;49.976;8.342;2022-10-22T09:46:01;16.70;99.90
2851;DHT22;1433;49.976;8.342;2022-10-22T09:48:39;16.70;99.90
2851;DHT22;1433;49.976;8.342;2022-10-22T09:53:45;16.90;99.90
2851;DHT22;1433;49.976;8.342;2022-10-22T09:56:38;16.90;99.90
2851;DHT22;1433;49.976;8.342;2022-10-22T09:58:56;17.00;99.90
2851;DHT22;1433;49.976;8.342;2022-10-22T10:01:32;17.10;99.90
2851;DHT22;1433;49.976;8.342;2022-10-22T10:04:13;17.10;99.90
2851;DHT22;1433;49.976;8.342;2022-10-22T10:06:41;17.20;99.90
2851;DHT22;1433;49.976;8.342;2022-10-22T10:09:14;17.20;99.90
2851;DHT22;1433;49.976;8.342;2022-10-22T10:14:32;17.40;99.90
2851;DHT22;1433;49.976;8.342;2022-10-22T10:19:53;17.90;99.90
2851;DHT22;1433;49.976;8.342;2022-10-22T10:25:07;18.50;99.90
2851;DHT22;1433;49.976;8.342;2022-10-22T10:27:39;18.70;53.40
2851;DHT22;1433;49.976;8.342;2022-10-22T10:32:46;18.70;1.00
2851;DHT22;1433;49.976;8.342;2022-10-22T10:41:03;19.30;1.00
2851;DHT22;1433;49.976;8.342;2022-10-22T10:43:41;19.50;1.00
2851;DHT22;1433;49.976;8.342;2022-10-22T10:46:13;19.40;1.00
2851;DHT22;1433;49.976;8.342;2022-10-22T10:56:38;19.50;1.00
2851;DHT22;1433;49.976;8.342;2022-10-22T10:59:25;19.50;99.90
2851;DHT22;1433;49.976;8.342;2022-10-22T11:07:17;19.40;1.00
2851;DHT22;1433;49.976;8.342;2022-10-22T11:09:55;19.50;99.90
2851;DHT22;1433;49.976;8.342;2022-10-22T11:12:25;19.50;1.00
2851;DHT22;1433;49.976;8.342;2022-10-22T11:17:22;19.60;99.90
2851;DHT22;1433;49.976;8.342;2022-10-22T11:20:14;19.80;1.00
2851;DHT22;1433;49.976;8.342;2022-10-22T11:22:36;20.10;1.00
2851;DHT22;1433;49.976;8.342;2022-10-22T11:25:17;20.40;85.90
2851;DHT22;1433;49.976;8.342;2022-10-22T11:27:52;20.40;99.90
2851;DHT22;1433;49.976;8.342;2022-10-22T11:30:21;20.50;1.00
2851;DHT22;1433;49.976;8.342;2022-10-22T11:32:54;20.40;99.90
2851;DHT22;1433;49.976;8.342;2022-10-22T11:35:21;20.10;1.00
2851;DHT22;1433;49.976;8.342;2022-10-22T11:37:48;20.20;1.00
2851;DHT22;1433;49.976;8.342;2022-10-22T11:40:20;20.70;1.00
2851;DHT22;1433;49.976;8.342;2022-10-22T11:42:51;20.80;1.00
2851;DHT22;1433;49.976;8.342;2022-10-22T11:53:36;21.10;99.90
2851;DHT22;1433;49.976;8.342;2022-10-22T11:58:40;21.20;1.00
2851;DHT22;1433;49.976;8.342;2022-10-22T12:01:21;21.50;99.90
2851;DHT22;1433;49.976;8.342;2022-10-22T12:03:51;21.90;1.00
2851;DHT22;1433;49.976;8.342;2022-10-22T12:06:21;22.40;1.00
2851;DHT22;1433;49.976;8.342;2022-10-22T12:16:38;24.00;1.00
2851;DHT22;1433;49.976;8.342;2022-10-22T12:19:05;24.50;1.00
2851;DHT22;1433;49.976;8.342;2022-10-22T12:21:32;24.40;1.00
2851;DHT22;1433;49.976;8.342;2022-10-22T12:23:59;25.00;99.90
2851;DHT22;1433;49.976;8.342;2022-10-22T12:26:30;25.00;99.90
2851;DHT22;1433;49.976;8.342;2022-10-22T12:28:58;24.60;1.00
2851;DHT22;1433;49.976;8.342;2022-10-22T12:31:24;24.50;1.00
2851;DHT22;1433;49.976;8.342;2022-10-22T12:33:58;24.70;1.00
2851;DHT22;1433;49.976;8.342;2022-10-22T12:36:26;25.30;1.00
2851;DHT22;1433;49.976;8.342;2022-10-22T12:38:52;25.30;1.00
2851;DHT22;1433;49.976;8.342;2022-10-22T12:41:20;25.10;1.00
2851;DHT22;1433;49.976;8.342;2022-10-22T12:43:46;24.90;1.00
2851;DHT22;1433;49.976;8.342;2022-10-22T12:46:14;25.30;1.00
2851;DHT22;1433;49.976;8.342;2022-10-22T12:48:43;24.30;1.00
2851;DHT22;1433;49.976;8.342;2022-10-22T12:51:18;24.20;1.00
2851;DHT22;1433;49.976;8.342;2022-10-22T12:53:52;24.50;1.00
2851;DHT22;1433;49.976;8.342;2022-10-22T12:56:21;24.40;1.00
2851;DHT22;1433;49.976;8.342;2022-10-22T12:59:00;24.20;1.00
2851;DHT22;1433;49.976;8.342;2022-10-22T13:01:36;24.10;1.00
2851;DHT22;1433;49.976;8.342;2022-10-22T13:07:01;23.00;1.00
2851;DHT22;1433;49.976;8.342;2022-10-22T13:09:22;22.60;1.00
2851;DHT22;1433;49.976;8.342;2022-10-22T13:11:56;22.30;1.00
2851;DHT22;1433;49.976;8.342;2022-10-22T13:14:28;21.80;1.00
2851;DHT22;1433;49.976;8.342;2022-10-22T13:17:07;21.60;1.00
2851;DHT22;1433;49.976;8.342;2022-10-22T13:19:48;21.50;1.00
2851;DHT22;1433;49.976;8.342;2022-10-22T13:22:33;21.90;1.00
2851;DHT22;1433;49.976;8.342;2022-10-22T13:27:33;22.70;1.00
2851;DHT22;1433;49.976;8.342;2022-10-22T13:30:02;23.30;1.00
2851;DHT22;1433;49.976;8.342;2022-10-22T13:32:31;23.60;1.00
2851;DHT22;1433;49.976;8.342;2022-10-22T13:35:00;23.70;99.90
2851;DHT22;1433;49.976;8.342;2022-10-22T13:37:29;23.80;1.00
2851;DHT22;1433;49.976;8.342;2022-10-22T13:39:55;23.70;1.00
2851;DHT22;1433;49.976;8.342;2022-10-22T13:42:22;24.10;1.00
2851;DHT22;1433;49.976;8.342;2022-10-22T13:44:48;23.40;1.00
2851;DHT22;1433;49.976;8.342;2022-10-22T13:49:51;23.60;1.00
2851;DHT22;1433;49.976;8.342;2022-10-22T13:52:28;23.00;1.00
2851;DHT22;1433;49.976;8.342;2022-10-22T13:54:51;22.60;1.00
2851;DHT22;1433;49.976;8.342;2022-10-22T13:57:17;22.00;1.00
2851;DHT22;1433;49.976;8.342;2022-10-22T13:59:44;21.90;1.00
2851;DHT22;1433;49.976;8.342;2022-10-22T14:02:11;21.60;1.00
2851;DHT22;1433;49.976;8.342;2022-10-22T14:04:39;21.50;1.00
2851;DHT22;1433;49.976;8.342;2022-10-22T14:07:15;21.50;1.00
2851;DHT22;1433;49.976;8.342;2022-10-22T14:09:42;21.20;1.00
2851;DHT22;1433;49.976;8.342;2022-10-22T14:12:11;21.00;1.00
2851;DHT22;1433;49.976;8.342;2022-10-22T14:14:37;20.80;1.00
2851;DHT22;1433;49.976;8.342;2022-10-22T14:17:04;20.70;1.00
2851;DHT22;1433;49.976;8.342;2022-10-22T14:19:30;20.50;1.00
2851;DHT22;1433;49.976;8.342;2022-10-22T14:21:57;20.30;1.00
2851;DHT22;1433;49.976;8.342;2022-10-22T14:24:23;20.00;1.00
2851;DHT22;1433;49.976;8.342;2022-10-22T14:26:49;19.70;99.90
2851;DHT22;1433;49.976;8.342;2022-10-22T14:29:15;19.70;1.00
2851;DHT22;1433;49.976;8.342;2022-10-22T14:31:42;19.80;1.00
2851;DHT22;1433;49.976;8.342;2022-10-22T14:34:14;20.30;99.90
2851;DHT22;1433;49.976;8.342;2022-10-22T14:36:41;20.80;1.00
2851;DHT22;1433;49.976;8.342;2022-10-22T14:39:12;20.90;99.90
2851;DHT22;1433;49.976;8.342;2022-10-22T14:41:39;20.80;99.90
2851;DHT22;1433;49.976;8.342;2022-10-22T14:44:06;20.80;1.00
2851;DHT22;1433;49.976;8.342;2022-10-22T14:46:34;21.20;99.90
2851;DHT22;1433;49.976;8.342;2022-10-22T14:49:01;21.40;1.00
2851;DHT22;1433;49.976;8.342;2022-10-22T14:51:27;21.30;1.00
2851;DHT22;1433;49.976;8.342;2022-10-22T14:53:54;21.00;1.00
2851;DHT22;1433;49.976;8.342;2022-10-22T14:56:20;20.80;1.00
2851;DHT22;1433;49.976;8.342;2022-10-22T14:58:46;20.70;1.00
2851;DHT22;1433;49.976;8.342;2022-10-22T15:01:13;20.60;99.90
2851;DHT22;1433;49.976;8.342;2022-10-22T15:03:39;20.40;99.90
2851;DHT22;1433;49.976;8.342;2022-10-22T15:06:06;20.20;99.90
2851;DHT22;1433;49.976;8.342;2022-10-22T15:08:33;20.10;1.00
2851;DHT22;1433;49.976;8.342;2022-10-22T15:11:01;20.00;1.00
2851;DHT22;1433;49.976;8.342;2022-10-22T15:13:28;20.00;1.00
2851;DHT22;1433;49.976;8.342;2022-10-22T15:15:56;19.90;1.00
2851;DHT22;1433;49.976;8.342;2022-10-22T15:18:23;19.90;99.90
2851;DHT22;1433;49.976;8.342;2022-10-22T15:21:05;19.80;1.00
2851;DHT22;1433;49.976;8.342;2022-10-22T15:23:31;19.60;1.00
2851;DHT22;1433;49.976;8.342;2022-10-22T15:25:58;19.50;97.30
2851;DHT22;1433;49.976;8.342;2022-10-22T15:28:24;19.40;99.90
2851;DHT22;1433;49.976;8.342;2022-10-22T15:30:52;19.40;1.00
2851;DHT22;1433;49.976;8.342;2022-10-22T15:33:19;19.40;99.90
2851;DHT22;1433;49.976;8.342;2022-10-22T15:35:45;19.30;1.00
2851;DHT22;1433;49.976;8.342;2022-10-22T15:38:11;19.20;1.00
2851;DHT22;1433;49.976;8.342;2022-10-22T15:40:37;19.20;1.00
2851;DHT22;1433;49.976;8.342;2022-10-22T15:43:03;19.10;1.00
2851;DHT22;1433;49.976;8.342;2022-10-22T15:45:30;19.10;1.00
2851;DHT22;1433;49.976;8.342;2022-10-22T15:47:56;19.10;99.90
2851;DHT22;1433;49.976;8.342;2022-10-22T15:50:22;18.90;79.60
2851;DHT22;1433;49.976;8.342;2022-10-22T15:52:48;18.80;1.00
2851;DHT22;1433;49.976;8.342;2022-10-22T15:55:16;18.70;1.00
2851;DHT22;1433;49.976;8.342;2022-10-22T15:57:42;18.50;99.90
2851;DHT22;1433;49.976;8.342;2022-10-22T16:00:09;18.40;1.00
2851;DHT22;1433;49.976;8.342;2022-10-22T16:02:38;18.20;1.00
2851;DHT22;1433;49.976;8.342;2022-10-22T16:05:05;18.10;1.00
2851;DHT22;1433;49.976;8.342;2022-10-22T16:07:32;18.00;23.50
2851;DHT22;1433;49.976;8.342;2022-10-22T16:09:58;17.90;99.90
2851;DHT22;1433;49.976;8.342;2022-10-22T16:12:25;17.70;99.90
2851;DHT22;1433;49.976;8.342;2022-10-22T16:14:51;17.60;99.90
2851;DHT22;1433;49.976;8.342;2022-10-22T16:17:17;17.40;99.90
2851;DHT22;1433;49.976;8.342;2022-10-22T16:19:43;17.30;99.90
2851;DHT22;1433;49.976;8.342;2022-10-22T16:22:09;17.20;99.90
2851;DHT22;1433;49.976;8.342;2022-10-22T16:24:37;17.10;99.90
2851;DHT22;1433;49.976;8.342;2022-10-22T16:27:07;17.00;99.90
2851;DHT22;1433;49.976;8.342;2022-10-22T16:29:36;16.90;99.90
2851;DHT22;1433;49.976;8.342;2022-10-22T16:32:03;16.80;99.90
2851;DHT22;1433;49.976;8.342;2022-10-22T16:34:29;16.60;99.90
2851;DHT22;1433;49.976;8.342;2022-10-22T16:36:55;16.50;99.90
2851;DHT22;1433;49.976;8.342;2022-10-22T16:39:22;16.40;99.90
2851;DHT22;1433;49.976;8.342;2022-10-22T16:41:48;16.30;99.90
2851;DHT22;1433;49.976;8.342;2022-10-22T16:44:15;16.20;99.90
2851;DHT22;1433;49.976;8.342;2022-10-22T16:46:41;16.00;99.90
2851;DHT22;1433;49.976;8.342;2022-10-22T16:49:07;15.90;99.90
2851;DHT22;1433;49.976;8.342;2022-10-22T16:51:34;15.80;99.90
2851;DHT22;1433;49.976;8.342;2022-10-22T16:54:01;15.70;99.90
2851;DHT22;1433;49.976;8.342;2022-10-22T16:56:28;15.70;99.90
2851;DHT22;1433;49.976;8.342;2022-10-22T16:58:56;15.60;99.90
2851;DHT22;1433;49.976;8.342;2022-10-22T17:01:24;15.40;99.90
2851;DHT22;1433;49.976;8.342;2022-10-22T17:03:59;15.20;99.90
2851;DHT22;1433;49.976;8.342;2022-10-22T17:06:26;15.10;99.90
2851;DHT22;1433;49.976;8.342;2022-10-22T17:08:52;15.10;99.90
2851;DHT22;1433;49.976;8.342;2022-10-22T17:11:21;15.00;99.90
2851;DHT22;1433;49.976;8.342;2022-10-22T17:13:49;15.00;99.90
2851;DHT22;1433;49.976;8.342;2022-10-22T17:16:19;15.00;99.90
2851;DHT22;1433;49.976;8.342;2022-10-22T17:18:46;14.90;99.90
2851;DHT22;1433;49.976;8.342;2022-10-22T17:21:13;14.80;99.90
2851;DHT22;1433;49.976;8.342;2022-10-22T17:23:39;14.70;99.90
2851;DHT22;1433;49.976;8.342;2022-10-22T17:26:12;14.70;99.90
2851;DHT22;1433;49.976;8.342;2022-10-22T17:28:36;14.60;99.90
2851;DHT22;1433;49.976;8.342;2022-10-22T17:31:08;14.70;99.90
2851;DHT22;1433;49.976;8.342;2022-10-22T17:33:35;14.50;99.90
2851;DHT22;1433;49.976;8.342;2022-10-22T17:36:07;14.50;99.90
2851;DHT22;1433;49.976;8.342;2022-10-22T17:38:35;14.50;99.90
2851;DHT22;1433;49.976;8.342;2022-10-22T17:41:02;14.40;99.90
2851;DHT22;1433;49.976;8.342;2022-10-22T17:43:28;14.30;99.90
2851;DHT22;1433;49.976;8.342;2022-10-22T17:46:07;14.30;99.90
2851;DHT22;1433;49.976;8.342;2022-10-22T17:48:38;14.30;99.90
2851;DHT22;1433;49.976;8.342;2022-10-22T17:51:08;14.10;99.90